createdAt,value
2022-12-23T00:01:30.225Z,175.25
2022-12-23T00:03:59.497Z,184.23
2022-12-23T00:06:26.975Z,187.93
2022-12-23T00:08:58.738Z,191.38
2022-12-23T00:11:27.132Z,178.65
2022-12-23T00:14:20.132Z,186.70
2022-12-23T00:16:48.795Z,181.23
2022-12-23T00:19:15.618Z,182.68
2022-12-23T00:21:42.425Z,175.35
2022-12-23T00:24:09.179Z,172.73
2022-12-23T00:26:35.941Z,175.95
2022-12-23T00:29:02.758Z,177.18
2022-12-23T00:31:29.594Z,176.75
2022-12-23T00:33:56.359Z,181.25
2022-12-23T00:36:27.742Z,180.95
2022-12-23T00:39:14.818Z,176.90
2022-12-23T00:42:00.067Z,173.82
2022-12-23T00:44:26.980Z,168.35
2022-12-23T00:46:53.768Z,178.00
2022-12-23T00:49:40.191Z,173.25
2022-12-23T00:52:12.476Z,168.18
2022-12-23T00:54:39.365Z,169.27
2022-12-23T00:57:06.066Z,168.38
2022-12-23T00:59:33.666Z,165.80
2022-12-23T01:02:19.142Z,165.40
2022-12-23T01:05:04.458Z,171.93
2022-12-23T01:07:31.193Z,176.45
2022-12-23T01:09:58.036Z,173.13
2022-12-23T01:12:25.263Z,172.73
2022-12-23T01:14:52.083Z,173.50
2022-12-23T01:17:18.866Z,175.73
2022-12-23T01:19:45.705Z,171.35
2022-12-23T01:22:12.489Z,179.88
2022-12-23T01:24:39.323Z,171.18
2022-12-23T01:27:06.069Z,164.20
2022-12-23T01:29:32.935Z,174.50
2022-12-23T01:32:00.024Z,175.60
2022-12-23T01:34:32.581Z,168.07
2022-12-23T01:39:29.578Z,166.13
2022-12-23T01:42:14.845Z,176.65
2022-12-23T01:45:04.141Z,169.07
2022-12-23T01:47:33.821Z,164.63
2022-12-23T01:50:09.668Z,167.98
2022-12-23T01:53:04.763Z,171.98
2022-12-23T01:55:59.232Z,168.70
2022-12-23T01:58:34.334Z,163.60
2022-12-23T02:01:20.409Z,170.75
2022-12-23T02:03:50.602Z,172.25
2022-12-23T02:06:46.175Z,172.10
2022-12-23T02:09:43.240Z,167.05
2022-12-23T02:12:12.910Z,162.55
2022-12-23T02:15:07.511Z,168.40
2022-12-23T02:18:08.381Z,171.50
2022-12-23T02:20:56.909Z,174.23
2022-12-23T02:23:45.641Z,163.30
2022-12-23T02:26:30.541Z,167.23
2022-12-23T02:29:19.048Z,171.80
2022-12-23T02:32:01.147Z,162.90
2022-12-23T02:34:46.615Z,172.20
2022-12-23T02:37:29.297Z,170.57
2022-12-23T02:40:07.038Z,165.68
2022-12-23T02:42:38.795Z,175.35
2022-12-23T02:45:17.176Z,176.68
2022-12-23T02:47:50.646Z,168.00
2022-12-23T02:50:26.441Z,172.65
2022-12-23T02:52:58.755Z,172.18
2022-12-23T02:55:33.753Z,165.63
2022-12-23T02:58:05.421Z,177.35
2022-12-23T03:00:33.033Z,175.52
2022-12-23T03:03:00.185Z,164.90
2022-12-23T03:05:39.177Z,172.32
2022-12-23T03:08:12.331Z,167.73
2022-12-23T03:10:57.276Z,174.57
2022-12-23T03:13:39.859Z,157.07
2022-12-23T03:16:15.675Z,173.65
2022-12-23T03:19:00.751Z,162.05
2022-12-23T03:21:45.047Z,169.80
2022-12-23T03:24:37.405Z,175.77
2022-12-23T03:27:10.259Z,170.65
2022-12-23T03:29:44.223Z,166.80
2022-12-23T03:32:13.922Z,172.20
2022-12-23T03:34:46.658Z,171.95
2022-12-23T03:37:16.027Z,164.30
2022-12-23T03:40:12.172Z,165.55
2022-12-23T03:42:41.854Z,165.93
2022-12-23T03:45:38.070Z,174.82
2022-12-23T03:48:11.889Z,165.20
2022-12-23T03:50:43.035Z,164.15
2022-12-23T03:53:18.717Z,175.40
2022-12-23T03:56:08.164Z,180.45
2022-12-23T03:58:41.782Z,162.35
2022-12-23T04:01:18.191Z,161.00
2022-12-23T04:04:07.008Z,166.40
2022-12-23T04:06:52.019Z,169.88
2022-12-23T04:09:22.363Z,168.43
2022-12-23T04:11:50.349Z,171.02
2022-12-23T04:14:22.146Z,160.50
2022-12-23T04:16:54.332Z,172.75
2022-12-23T04:19:21.118Z,161.60
2022-12-23T04:21:47.963Z,166.65
2022-12-23T04:24:14.714Z,163.55
2022-12-23T04:26:41.450Z,162.90
2022-12-23T04:29:08.480Z,157.82
2022-12-23T04:31:38.247Z,157.70
2022-12-23T04:34:05.076Z,152.48
2022-12-23T04:36:31.862Z,169.48
2022-12-23T04:38:58.669Z,181.85
2022-12-23T04:41:25.405Z,173.27
2022-12-23T04:43:53.219Z,180.43
2022-12-23T04:46:20.384Z,173.40
2022-12-23T04:48:47.208Z,160.07
2022-12-23T04:51:14.002Z,178.10
2022-12-23T04:53:40.757Z,164.82
2022-12-23T04:56:08.894Z,176.00
2022-12-23T04:58:35.573Z,173.52
2022-12-23T05:01:05.535Z,173.32
2022-12-23T05:03:33.089Z,164.07
2022-12-23T05:06:00.342Z,170.55
2022-12-23T05:08:27.350Z,160.55
2022-12-23T05:10:54.382Z,172.55
2022-12-23T05:13:21.438Z,164.52
2022-12-23T05:15:53.224Z,168.52
2022-12-23T05:18:21.494Z,178.48
2022-12-23T05:20:49.783Z,167.73
2022-12-23T05:23:16.619Z,178.30
2022-12-23T05:25:43.432Z,187.05
2022-12-23T05:28:10.740Z,174.18
2022-12-23T05:30:37.468Z,180.35
2022-12-23T05:33:04.338Z,183.75
2022-12-23T05:35:31.086Z,177.15
2022-12-23T05:37:58.520Z,186.77
2022-12-23T05:40:28.325Z,173.70
2022-12-23T05:42:56.405Z,173.43
2022-12-23T05:45:23.464Z,181.13
2022-12-23T05:47:50.177Z,175.57
2022-12-23T05:50:16.980Z,173.40
2022-12-23T05:52:43.768Z,182.60
2022-12-23T05:55:10.598Z,174.95
2022-12-23T05:57:37.440Z,177.25
2022-12-23T06:00:04.647Z,179.75
2022-12-23T06:02:39.254Z,168.40
2022-12-23T06:05:06.380Z,172.38
2022-12-23T06:07:33.401Z,169.38
2022-12-23T06:10:00.147Z,180.48
2022-12-23T06:12:26.892Z,183.02
2022-12-23T06:14:54.072Z,190.00
2022-12-23T06:17:21.185Z,177.13
2022-12-23T06:19:47.881Z,172.65
2022-12-23T06:22:15.516Z,172.10
2022-12-23T06:24:42.281Z,176.25
2022-12-23T06:27:09.050Z,167.50
2022-12-23T06:29:36.317Z,174.68
2022-12-23T06:32:03.298Z,173.50
2022-12-23T06:34:31.432Z,175.20
2022-12-23T06:36:58.565Z,176.32
2022-12-23T06:39:25.313Z,183.65
2022-12-23T06:41:52.176Z,182.48
2022-12-23T06:44:19.078Z,169.35
2022-12-23T06:46:45.853Z,200.90
2022-12-23T06:49:13.651Z,178.10
2022-12-23T06:51:41.631Z,190.85
2022-12-23T06:54:11.104Z,173.52
2022-12-23T06:56:37.915Z,176.52
2022-12-23T06:59:04.608Z,172.45
2022-12-23T07:01:31.505Z,178.32
2022-12-23T07:03:58.286Z,198.80
2022-12-23T07:06:25.145Z,183.73
2022-12-23T07:08:51.915Z,182.82
2022-12-23T07:11:18.653Z,182.75
2022-12-23T07:13:46.308Z,180.88
2022-12-23T07:16:13.300Z,243.48
2022-12-23T07:18:40.499Z,176.73
2022-12-23T07:21:15.541Z,167.50
2022-12-23T07:23:44.742Z,172.48
2022-12-23T07:26:11.485Z,170.43
2022-12-23T07:28:38.351Z,179.18
2022-12-23T07:31:08.227Z,172.77
2022-12-23T07:33:35.020Z,190.07
2022-12-23T07:36:01.728Z,182.93
2022-12-23T07:38:29.797Z,174.05
2022-12-23T07:40:56.565Z,175.18
2022-12-23T07:43:23.708Z,169.70
2022-12-23T07:45:57.320Z,185.77
2022-12-23T07:48:26.550Z,174.00
2022-12-23T07:50:53.359Z,175.88
2022-12-23T07:53:20.169Z,177.85
2022-12-23T07:55:51.546Z,174.02
2022-12-23T07:58:24.480Z,174.88
2022-12-23T08:00:51.512Z,180.95
2022-12-23T08:03:18.356Z,194.52
2022-12-23T08:05:45.288Z,197.88
2022-12-23T08:08:12.628Z,177.80
2022-12-23T08:10:47.750Z,182.93
2022-12-23T08:13:14.720Z,179.63
2022-12-23T08:15:41.584Z,196.48
2022-12-23T08:18:08.344Z,175.45
2022-12-23T08:20:35.074Z,179.68
2022-12-23T08:23:01.852Z,185.63
2022-12-23T08:25:28.640Z,178.32
2022-12-23T08:27:55.420Z,177.50
2022-12-23T08:30:22.212Z,174.60
2022-12-23T08:32:48.962Z,181.80
2022-12-23T08:35:15.849Z,189.00
2022-12-23T08:37:42.612Z,177.63
2022-12-23T08:40:09.780Z,181.10
2022-12-23T08:42:36.472Z,172.90
2022-12-23T08:45:03.459Z,184.13
2022-12-23T08:47:30.247Z,179.73
2022-12-23T08:49:57.013Z,185.70
2022-12-23T08:52:23.710Z,185.23
2022-12-23T08:54:50.464Z,182.13
2022-12-23T08:57:17.258Z,189.05
2022-12-23T08:59:44.153Z,183.80
2022-12-23T09:02:14.252Z,183.63
2022-12-23T09:04:41.393Z,176.40
2022-12-23T09:07:08.116Z,185.00
2022-12-23T09:09:35.024Z,181.75
2022-12-23T09:12:01.908Z,192.52
2022-12-23T09:14:29.008Z,190.52
2022-12-23T09:16:55.808Z,186.77
2022-12-23T09:19:22.513Z,182.68
2022-12-23T09:21:49.259Z,180.82
2022-12-23T09:24:16.068Z,184.02
2022-12-23T09:26:42.827Z,181.65
2022-12-23T09:29:09.546Z,181.95
2022-12-23T09:31:37.870Z,183.23
2022-12-23T09:34:05.376Z,178.65
2022-12-23T09:36:32.220Z,194.25
2022-12-23T09:38:59.516Z,191.30
2022-12-23T09:42:01.556Z,193.55
2022-12-23T09:45:13.150Z,180.68
2022-12-23T09:47:41.649Z,191.25
2022-12-23T09:50:29.287Z,184.65
2022-12-23T09:53:28.348Z,188.55
2022-12-23T09:56:12.220Z,192.30
2022-12-23T09:58:49.425Z,191.05
2022-12-23T10:01:32.690Z,183.25
2022-12-23T10:04:22.677Z,181.73
2022-12-23T10:07:28.961Z,181.25
2022-12-23T10:09:58.212Z,182.75
2022-12-23T10:12:44.761Z,195.20
2022-12-23T10:15:47.395Z,194.93
2022-12-23T10:18:51.270Z,179.73
2022-12-23T10:21:47.562Z,187.45
2022-12-23T10:24:26.322Z,191.20
2022-12-23T10:26:58.132Z,186.18
2022-12-23T10:29:30.089Z,194.48
2022-12-23T10:32:34.430Z,194.43
2022-12-23T10:35:18.081Z,191.27
2022-12-23T10:38:08.394Z,204.05
2022-12-23T10:40:45.479Z,198.82
2022-12-23T10:43:50.723Z,192.82
2022-12-23T10:46:50.864Z,197.18
2022-12-23T10:49:26.964Z,198.65
2022-12-23T10:51:59.511Z,188.50
2022-12-23T10:54:35.163Z,207.60
2022-12-23T10:57:04.456Z,198.40
2022-12-23T10:59:36.147Z,191.25
2022-12-23T11:02:33.566Z,198.70
2022-12-23T11:07:45.939Z,196.05
2022-12-23T11:10:19.444Z,194.68
2022-12-23T11:12:49.967Z,193.02
2022-12-23T11:15:33.213Z,202.75
2022-12-23T11:18:20.772Z,200.82
2022-12-23T11:21:14.562Z,196.98
2022-12-23T11:23:41.371Z,200.60
2022-12-23T11:26:11.820Z,200.30
2022-12-23T11:28:47.415Z,204.65
2022-12-23T11:31:17.030Z,201.25
2022-12-23T11:34:02.611Z,194.20
2022-12-23T11:36:31.348Z,198.93
2022-12-23T11:39:07.139Z,193.27
2022-12-23T11:41:40.476Z,191.23
2022-12-23T11:44:33.684Z,203.63
2022-12-23T11:47:22.197Z,197.20
2022-12-23T11:49:59.954Z,207.93
2022-12-23T11:52:31.928Z,201.55
2022-12-23T11:55:04.646Z,197.95
2022-12-23T11:57:49.062Z,205.07
2022-12-23T12:00:21.057Z,200.13
2022-12-23T12:02:53.063Z,206.15
2022-12-23T12:05:22.981Z,200.70
2022-12-23T12:07:52.273Z,208.95
2022-12-23T12:10:25.963Z,201.68
2022-12-23T12:12:57.029Z,199.30
2022-12-23T12:15:34.873Z,197.93
2022-12-23T12:18:04.075Z,212.55
2022-12-23T12:20:42.098Z,197.80
2022-12-23T12:23:20.845Z,200.82
2022-12-23T12:25:58.317Z,215.30
2022-12-23T12:28:43.185Z,201.88
2022-12-23T12:31:32.107Z,201.38
2022-12-23T12:34:23.860Z,202.57
2022-12-23T12:37:53.681Z,204.88
2022-12-23T12:40:34.291Z,198.63
2022-12-23T12:43:33.448Z,191.93
2022-12-23T12:46:06.615Z,202.70
2022-12-23T12:49:09.325Z,204.80
2022-12-23T12:52:08.004Z,210.00
2022-12-23T12:54:41.768Z,198.55
2022-12-23T12:57:15.177Z,197.32
2022-12-23T12:59:43.988Z,197.02
2022-12-23T13:02:34.778Z,198.13
2022-12-23T13:05:20.661Z,195.27
2022-12-23T13:08:14.854Z,206.57
2022-12-23T13:10:51.711Z,208.05
2022-12-23T13:13:21.379Z,195.07
2022-12-23T13:16:05.477Z,199.77
2022-12-23T13:18:52.092Z,194.85
2022-12-23T13:21:37.024Z,194.05
2022-12-23T13:24:28.706Z,196.80
2022-12-23T13:27:00.598Z,192.85
2022-12-23T13:29:57.954Z,188.88
2022-12-23T13:32:39.147Z,201.00
2022-12-23T13:35:08.865Z,196.32
2022-12-23T13:37:44.784Z,200.60
2022-12-23T13:40:43.911Z,192.57
2022-12-23T13:43:15.290Z,186.40
2022-12-23T13:45:43.919Z,210.68
2022-12-23T13:48:28.879Z,201.05
2022-12-23T13:51:37.215Z,198.52
2022-12-23T13:54:26.935Z,194.43
2022-12-23T13:57:08.520Z,197.45
2022-12-23T13:59:43.590Z,202.43
2022-12-23T14:02:35.138Z,207.77
2022-12-23T14:05:04.097Z,201.18
2022-12-23T14:07:33.462Z,208.75
2022-12-23T14:10:11.245Z,199.38
2022-12-23T14:12:42.572Z,213.00
2022-12-23T14:15:25.601Z,206.68
2022-12-23T14:18:13.793Z,214.00
2022-12-23T14:21:02.205Z,206.13
2022-12-23T14:23:40.654Z,199.18
2022-12-23T14:26:38.913Z,206.00
2022-12-23T14:29:47.868Z,204.63
2022-12-23T14:32:36.290Z,209.05
2022-12-23T14:35:16.434Z,197.18
2022-12-23T14:37:43.416Z,202.40
2022-12-23T14:40:37.843Z,200.52
2022-12-23T14:43:51.323Z,200.60
2022-12-23T14:46:36.451Z,196.52
2022-12-23T14:49:36.875Z,195.93
2022-12-23T14:51:51.156Z,194.32
2022-12-23T14:54:38.406Z,195.00
2022-12-23T14:57:19.242Z,197.93
2022-12-23T15:00:05.588Z,189.57
2022-12-23T15:02:37.009Z,193.07
2022-12-23T15:05:04.720Z,190.90
2022-12-23T15:07:38.271Z,194.43
2022-12-23T15:10:07.169Z,190.45
2022-12-23T15:12:36.103Z,190.45
2022-12-23T15:15:17.942Z,198.00
2022-12-23T15:17:44.960Z,199.90
2022-12-23T15:20:12.720Z,212.98
2022-12-23T15:22:42.697Z,203.63
2022-12-23T15:25:39.466Z,192.00
2022-12-23T15:28:15.264Z,210.35
2022-12-23T15:30:48.625Z,212.10
2022-12-23T15:34:01.003Z,203.10
2022-12-23T15:36:11.694Z,212.48
2022-12-23T15:38:39.593Z,214.63
2022-12-23T15:41:14.873Z,210.82
2022-12-23T15:43:43.039Z,209.35
2022-12-23T15:46:31.780Z,207.95
2022-12-23T15:48:58.627Z,200.68
2022-12-23T15:52:07.598Z,204.00
2022-12-23T15:54:29.356Z,216.02
2022-12-23T15:56:59.069Z,213.07
2022-12-23T15:59:31.349Z,209.65
2022-12-23T16:01:58.399Z,216.02
2022-12-23T16:04:27.723Z,216.07
2022-12-23T16:06:55.760Z,218.15
2022-12-23T16:09:36.390Z,223.38
2022-12-23T16:12:20.483Z,214.18
2022-12-23T16:15:00.950Z,213.43
2022-12-23T16:17:33.589Z,222.13
2022-12-23T16:20:24.781Z,218.52
2022-12-23T16:22:57.566Z,230.23
2022-12-23T16:25:31.794Z,229.00
2022-12-23T16:28:24.496Z,219.82
2022-12-23T16:30:57.104Z,210.68
2022-12-23T16:33:23.737Z,221.52
2022-12-23T16:35:51.091Z,229.15
2022-12-23T16:38:22.572Z,220.65
2022-12-23T16:40:54.583Z,225.80
2022-12-23T16:43:24.106Z,222.88
2022-12-23T16:45:54.426Z,232.20
2022-12-23T16:48:40.362Z,219.85
2022-12-23T16:51:14.756Z,219.37
2022-12-23T16:53:41.513Z,219.10
2022-12-23T16:56:20.503Z,218.98
2022-12-23T16:58:47.297Z,226.27
2022-12-23T17:01:21.985Z,231.60
2022-12-23T17:03:49.173Z,208.05
2022-12-23T17:06:17.685Z,213.88
2022-12-23T17:08:44.840Z,212.70
2022-12-23T17:11:16.981Z,209.77
2022-12-23T17:13:45.087Z,211.18
2022-12-23T17:16:22.293Z,208.88
2022-12-23T17:18:50.784Z,212.40
2022-12-23T17:21:24.131Z,216.75
2022-12-23T17:23:56.692Z,215.60
2022-12-23T17:26:23.445Z,225.00
2022-12-23T17:28:50.240Z,212.07
2022-12-23T17:31:26.679Z,236.70
2022-12-23T17:33:54.539Z,219.93
2022-12-23T17:36:21.948Z,228.77
2022-12-23T17:38:48.796Z,222.23
2022-12-23T17:41:30.956Z,220.45
2022-12-23T17:43:58.365Z,208.50
2022-12-23T17:46:26.745Z,212.20
2022-12-23T17:48:53.918Z,201.73
2022-12-23T17:51:22.512Z,209.45
2022-12-23T17:53:56.866Z,202.32
2022-12-23T17:56:26.429Z,214.02
2022-12-23T17:58:53.252Z,200.52
2022-12-23T18:01:26.197Z,199.35
2022-12-23T18:03:53.678Z,200.98
2022-12-23T18:06:22.088Z,203.70
2022-12-23T18:08:49.644Z,191.35
2022-12-23T18:11:39.070Z,205.10
2022-12-23T18:14:07.684Z,200.23
2022-12-23T18:16:34.484Z,186.65
2022-12-23T18:19:01.230Z,201.48
2022-12-23T18:21:29.208Z,204.10
2022-12-23T18:23:59.714Z,216.68
2022-12-23T18:26:26.801Z,207.50
2022-12-23T18:28:54.617Z,206.80
2022-12-23T18:31:24.297Z,209.60
2022-12-23T18:33:51.754Z,219.73
2022-12-23T18:36:28.475Z,204.95
2022-12-23T18:38:56.555Z,211.57
2022-12-23T18:41:24.837Z,212.38
2022-12-23T18:43:52.187Z,214.93
2022-12-23T18:46:22.331Z,197.68
2022-12-23T18:48:51.640Z,200.00
2022-12-23T18:51:22.206Z,203.93
2022-12-23T18:53:49.231Z,201.38
2022-12-23T18:56:19.293Z,213.05
2022-12-23T18:58:46.096Z,193.32
2022-12-23T19:01:14.636Z,203.80
2022-12-23T19:03:42.173Z,199.65
2022-12-23T19:06:11.907Z,189.57
2022-12-23T19:08:39.238Z,204.25
2022-12-23T19:11:15.210Z,194.60
2022-12-23T19:13:42.088Z,206.00
2022-12-23T19:16:13.690Z,208.43
2022-12-23T19:18:40.580Z,213.65
2022-12-23T19:21:07.325Z,206.00
2022-12-23T19:23:34.095Z,183.73
2022-12-23T19:26:01.030Z,186.13
2022-12-23T19:28:27.860Z,188.50
2022-12-23T19:30:54.701Z,191.52
2022-12-23T19:33:21.521Z,183.18
2022-12-23T19:35:48.356Z,193.43
2022-12-23T19:38:15.243Z,201.30
2022-12-23T19:40:41.992Z,195.00
2022-12-23T19:43:08.726Z,200.30
2022-12-23T19:45:35.486Z,202.07
2022-12-23T19:48:02.244Z,196.73
2022-12-23T19:50:31.619Z,199.07
2022-12-23T19:52:58.426Z,199.82
2022-12-23T19:55:25.162Z,186.43
2022-12-23T19:57:52.368Z,196.30
2022-12-23T20:00:19.237Z,198.35
2022-12-23T20:02:46.220Z,198.10
2022-12-23T20:05:13.194Z,186.52
2022-12-23T20:07:40.060Z,195.80
2022-12-23T20:10:07.485Z,185.07
2022-12-23T20:12:34.295Z,199.60
2022-12-23T20:15:01.068Z,196.02
2022-12-23T20:17:30.736Z,203.07
2022-12-23T20:19:57.520Z,205.20
2022-12-23T20:22:24.287Z,211.98
2022-12-23T20:24:51.068Z,206.82
2022-12-23T20:27:22.629Z,205.27
2022-12-23T20:29:52.897Z,203.20
2022-12-23T20:32:19.626Z,195.75
2022-12-23T20:34:46.489Z,200.10
2022-12-23T20:37:14.149Z,198.70
2022-12-23T20:39:40.885Z,205.02
2022-12-23T20:42:08.669Z,197.88
2022-12-23T20:44:36.886Z,190.77
2022-12-23T20:47:06.180Z,194.00
2022-12-23T20:49:33.567Z,196.57
2022-12-23T20:52:00.410Z,204.48
2022-12-23T20:54:32.561Z,202.65
2022-12-23T20:57:00.841Z,204.00
2022-12-23T20:59:27.738Z,194.50
2022-12-23T21:01:54.960Z,198.23
2022-12-23T21:04:22.661Z,203.05
2022-12-23T21:06:49.674Z,203.20
2022-12-23T21:09:16.868Z,187.43
2022-12-23T21:11:45.505Z,192.93
2022-12-23T21:14:13.023Z,201.57
2022-12-23T21:16:40.493Z,226.65
2022-12-23T21:19:15.543Z,214.05
2022-12-23T21:21:42.446Z,224.80
2022-12-23T21:24:09.829Z,211.20
2022-12-23T21:26:36.996Z,208.40
2022-12-23T21:29:06.503Z,211.05
2022-12-23T21:31:36.025Z,215.93
2022-12-23T21:34:03.395Z,209.25
2022-12-23T21:36:32.463Z,212.57
2022-12-23T21:39:00.213Z,204.07
2022-12-23T21:41:31.769Z,205.00
2022-12-23T21:44:00.171Z,208.57
2022-12-23T21:46:28.150Z,209.93
2022-12-23T21:48:58.946Z,203.02
2022-12-23T21:51:41.904Z,214.40
2022-12-23T21:54:12.490Z,224.18
2022-12-23T21:56:40.399Z,245.68
2022-12-23T21:59:11.392Z,226.40
2022-12-23T22:01:38.482Z,230.73
2022-12-23T22:04:05.570Z,233.70
2022-12-23T22:06:37.969Z,211.15
2022-12-23T22:09:06.343Z,212.77
2022-12-23T22:11:35.275Z,199.80
2022-12-23T22:14:03.640Z,207.93
2022-12-23T22:16:31.576Z,226.73
2022-12-23T22:19:00.555Z,212.52
2022-12-23T22:21:30.367Z,209.80
2022-12-23T22:23:57.917Z,225.82
2022-12-23T22:26:26.975Z,201.35
2022-12-23T22:28:59.277Z,210.63
2022-12-23T22:31:38.346Z,206.65
2022-12-23T22:34:06.269Z,195.45
2022-12-23T22:36:33.791Z,192.48
2022-12-23T22:39:01.833Z,173.63
2022-12-23T22:41:30.171Z,202.30
2022-12-23T22:43:58.030Z,179.52
2022-12-23T22:46:25.642Z,179.32
2022-12-23T22:48:53.233Z,179.23
2022-12-23T22:51:26.039Z,190.90
2022-12-23T22:53:53.505Z,183.95
2022-12-23T22:56:21.628Z,180.02
2022-12-23T22:58:49.499Z,182.50
2022-12-23T23:01:28.669Z,173.73
2022-12-23T23:03:57.638Z,173.98
2022-12-23T23:06:33.599Z,179.25
2022-12-23T23:09:01.425Z,189.63
2022-12-23T23:11:29.210Z,178.40
2022-12-23T23:13:56.476Z,172.90
2022-12-23T23:16:24.536Z,169.20
2022-12-23T23:18:52.761Z,174.63
2022-12-23T23:21:20.112Z,182.52
2022-12-23T23:23:46.976Z,176.30
2022-12-23T23:26:14.104Z,178.65
2022-12-23T23:28:42.290Z,174.40
2022-12-23T23:33:57.982Z,176.90
2022-12-23T23:36:25.402Z,165.98
2022-12-23T23:38:52.185Z,165.43
2022-12-23T23:41:22.778Z,172.65
2022-12-23T23:43:50.958Z,162.48
2022-12-23T23:46:17.869Z,160.32
2022-12-23T23:48:44.636Z,158.32
2022-12-23T23:51:12.505Z,165.38
2022-12-23T23:53:39.311Z,163.45
2022-12-23T23:56:07.628Z,164.00
2022-12-23T23:58:35.396Z,162.52
